Time;durP1;ratioP1;P1;durP2;ratioP2;P2;SDS_P1;SDS_P2;PMS_P1;PMS_P2;Temp;Humidity;BMP_temperature;BMP_pressure;BME280_temperature;BME280_humidity;BME280_pressure;Samples;Min_cycle;Max_cycle;Signal;HPM_P1;HPM_P2
2022/11/05 00:09:29;;;;;;;13.20;6.60;;;;;;;14.75;nan;100625.00;4935534;29;20034;-92
2022/11/05 00:17:29;;;;;;;12.32;6.32;;;;;;;14.88;nan;100621.22;4934019;29;20091;-93
2022/11/05 00:19:55;;;;;;;12.93;6.22;;;;;;;14.86;nan;100624.97;4934510;29;20036;-93
2022/11/05 00:25:15;;;;;;;17.52;6.32;;;;;;;15.03;nan;100613.00;4934835;29;20042;-94
2022/11/05 00:27:51;;;;;;;15.88;6.93;;;;;;;15.37;nan;100608.34;4933736;29;20381;-93
2022/11/05 00:30:23;;;;;;;13.93;5.80;;;;;;;15.23;nan;100616.63;4932781;29;20549;-93
2022/11/05 00:32:50;;;;;;;12.07;5.43;;;;;;;15.26;nan;100616.34;4933955;29;20078;-94
2022/11/05 00:35:18;;;;;;;10.38;5.25;;;;;;;15.30;nan;100616.91;4933598;29;20032;-93
2022/11/05 00:37:43;;;;;;;12.15;4.93;;;;;;;15.21;nan;100603.50;4933721;29;20054;-93
2022/11/05 00:40:10;;;;;;;11.05;5.65;;;;;;;15.13;nan;100610.44;4933641;29;20486;-93
2022/11/05 00:45:22;;;;;;;11.85;6.07;;;;;;;15.21;nan;100589.47;4931379;29;20035;-95
2022/11/05 00:50:32;;;;;;;13.73;6.65;;;;;;;15.15;nan;100603.19;4931648;29;20038;-95
2022/11/05 00:52:59;;;;;;;12.43;5.47;;;;;;;14.87;nan;100601.03;4933275;29;20119;-94
2022/11/05 00:55:27;;;;;;;9.73;4.82;;;;;;;15.05;nan;100601.31;4933715;29;20114;-94
2022/11/05 00:57:53;;;;;;;12.13;5.50;;;;;;;14.87;nan;100579.91;4932670;29;20036;-94
2022/11/05 01:00:19;;;;;;;9.77;5.28;;;;;;;15.16;nan;100594.28;4933362;29;20027;-94
2022/11/05 01:02:45;;;;;;;14.20;4.38;;;;;;;15.00;nan;100568.28;4932744;29;20024;-94
2022/11/05 01:05:11;;;;;;;9.98;4.35;;;;;;;15.15;nan;100584.69;4934206;29;20163;-93
2022/11/05 01:07:36;;;;;;;8.20;4.05;;;;;;;15.43;nan;100586.66;4933255;29;20027;-94
2022/11/05 01:10:02;;;;;;;14.77;4.53;;;;;;;15.51;nan;100583.34;4932628;29;20038;-93
2022/11/05 01:12:29;;;;;;;13.80;6.07;;;;;;;15.50;nan;100576.41;4933361;29;20118;-94
2022/11/05 01:14:55;;;;;;;9.05;3.75;;;;;;;15.43;nan;100554.06;4933251;29;20035;-94
2022/11/05 01:17:20;;;;;;;12.52;4.18;;;;;;;15.59;nan;100569.47;4933030;29;20106;-93
2022/11/05 01:19:46;;;;;;;11.82;3.95;;;;;;;15.51;nan;100587.81;4932923;29;20032;-93
2022/11/05 01:22:12;;;;;;;6.00;3.83;;;;;;;15.44;nan;100588.34;4933189;29;20359;-94
2022/11/05 01:24:37;;;;;;;9.98;3.95;;;;;;;15.30;nan;100583.38;4931719;29;20506;-94
2022/11/05 01:27:03;;;;;;;10.95;4.07;;;;;;;14.78;nan;100551.56;4932860;29;20027;-94
2022/11/05 01:29:28;;;;;;;13.65;3.83;;;;;;;14.76;nan;100547.41;4933250;29;20059;-93
2022/11/05 01:31:54;;;;;;;9.27;3.83;;;;;;;14.39;nan;100559.16;4933032;29;20446;-94
2022/11/05 01:34:19;;;;;;;19.42;3.25;;;;;;;14.88;nan;100549.00;4935637;29;20058;-93
2022/11/05 01:36:45;;;;;;;12.50;2.88;;;;;;;14.85;nan;100549.28;4937328;29;20367;-94
2022/11/05 01:39:10;;;;;;;9.73;3.17;;;;;;;15.20;nan;100545.44;4935691;29;20072;-93
2022/11/05 01:41:36;;;;;;;14.52;3.80;;;;;;;15.08;nan;100534.94;4936407;29;20378;-92
2022/11/05 01:44:02;;;;;;;7.28;3.03;;;;;;;15.29;nan;100523.50;4936367;29;20036;-93
2022/11/05 01:46:32;;;;;;;10.95;3.28;;;;;;;15.43;nan;100549.59;4936162;29;20478;-93
2022/11/05 01:49:07;;;;;;;7.63;3.20;;;;;;;15.66;nan;100552.09;4935814;29;20055;-93
2022/11/05 01:51:33;;;;;;;12.18;3.65;;;;;;;15.52;nan;100536.53;4936054;29;20067;-93
2022/11/05 01:54:08;;;;;;;8.63;4.03;;;;;;;15.74;nan;100530.25;4933101;29;20023;-93
2022/11/05 01:56:43;;;;;;;7.63;3.30;;;;;;;15.95;nan;100543.41;4937399;29;20057;-92
2022/11/05 01:59:13;;;;;;;9.48;2.85;;;;;;;15.32;nan;100532.97;4935894;29;20030;-93
2022/11/05 02:01:38;;;;;;;5.57;3.03;;;;;;;15.23;nan;100532.81;4935812;29;20059;-93
2022/11/05 02:04:10;;;;;;;8.00;3.15;;;;;;;15.46;nan;100530.81;4936367;29;20122;-93
2022/11/05 02:06:37;;;;;;;;;;;;;;;15.80;nan;100535.84;4936279;29;20607;-92
2022/11/05 02:09:11;;;;;;;9.40;3.03;;;;;;;15.32;nan;100511.81;4936280;29;19919;-93
2022/11/05 02:11:36;;;;;;;8.40;2.70;;;;;;;15.22;nan;100531.09;4935712;29;20039;-94
2022/11/05 02:14:02;;;;;;;7.03;2.10;;;;;;;15.01;nan;100511.81;4935611;29;20512;-93
2022/11/05 02:16:37;;;;;;;11.38;2.92;;;;;;;15.41;nan;100540.97;4932781;29;20028;-93
2022/11/05 02:19:43;;;;;;;10.88;2.40;;;;;;;15.21;nan;100523.34;4935794;29;20482;-93
2022/11/05 02:22:43;;;;;;;11.25;3.30;;;;;;;16.02;nan;100532.13;4935020;29;20078;-93
2022/11/05 02:25:23;;;;;;;10.18;2.60;;;;;;;15.82;nan;100531.25;4934109;29;20442;-93
2022/11/05 02:28:04;;;;;;;9.98;2.88;;;;;;;15.70;nan;100526.16;4935509;29;20111;-92
2022/11/05 02:30:55;;;;;;;9.13;2.83;;;;;;;15.67;nan;100514.88;4951523;29;20032;-95
2022/11/05 02:33:42;;;;;;;5.43;2.40;;;;;;;15.88;nan;100527.25;4935563;29;20027;-94
2022/11/05 02:36:08;;;;;;;9.35;2.40;;;;;;;15.56;nan;100530.00;4935223;29;20043;-92
2022/11/05 02:38:34;;;;;;;9.82;2.72;;;;;;;15.75;nan;100519.53;4934593;29;20027;-92
2022/11/05 02:41:09;;;;;;;8.55;2.22;;;;;;;15.80;nan;100505.91;4935471;29;20036;-92
2022/11/05 02:44:13;;;;;;;10.43;2.70;;;;;;;15.63;nan;100520.56;4935088;29;20083;-92
2022/11/05 02:47:03;;;;;;;6.60;2.53;;;;;;;15.70;nan;100510.28;4902767;29;20051;-93
2022/11/05 02:49:43;;;;;;;9.48;2.60;;;;;;;15.77;nan;100522.03;4936380;29;20075;-93
2022/11/05 02:52:14;;;;;;;10.70;2.95;;;;;;;15.67;nan;100499.00;4934435;29;20019;-92
2022/11/05 02:55:04;;;;;;;9.02;2.60;;;;;;;16.02;nan;100518.91;4936265;29;20111;-95
2022/11/05 02:57:35;;;;;;;6.80;2.22;;;;;;;16.03;nan;100514.44;4936206;29;20032;-95
2022/11/05 03:00:26;;;;;;;3.93;2.03;;;;;;;16.09;nan;100513.88;4934824;29;20115;-94
2022/11/05 03:02:52;;;;;;;11.10;2.37;;;;;;;15.55;nan;100501.88;4931273;29;20847;-95
2022/11/05 03:05:24;;;;;;;11.30;2.90;;;;;;;15.91;nan;100515.53;4934568;29;20036;-92
2022/11/05 03:07:59;;;;;;;8.05;2.33;;;;;;;15.80;nan;100525.25;4934124;29;20126;-92
2022/11/05 03:10:38;;;;;;;14.35;3.28;;;;;;;15.65;nan;100514.16;4934662;29;20024;-92
2022/11/05 03:13:38;;;;;;;10.43;2.83;;;;;;;15.86;nan;100513.31;4936012;29;20078;-93
2022/11/05 03:16:13;;;;;;;8.50;3.22;;;;;;;15.40;nan;100496.97;4934571;29;20060;-93
2022/11/05 03:18:42;;;;;;;10.95;2.72;;;;;;;15.45;nan;100496.56;4934591;29;20040;-93
2022/11/05 03:21:20;;;;;;;7.40;2.60;;;;;;;15.57;nan;100505.25;4930470;29;20317;-92
2022/11/05 03:24:11;;;;;;;14.80;2.95;;;;;;;15.64;nan;100495.81;4933054;29;20036;-96
2022/11/05 03:26:46;;;;;;;5.20;2.55;;;;;;;15.84;nan;100500.19;4949656;29;20127;-95
2022/11/05 03:29:19;;;;;;;12.18;3.20;;;;;;;15.85;nan;100493.91;4934407;29;20175;-93
2022/11/05 03:31:47;;;;;;;6.70;3.50;;;;;;;15.46;nan;100493.78;4934199;29;20062;-94
2022/11/05 03:34:17;;;;;;;11.57;3.53;;;;;;;15.23;nan;100495.78;4934209;29;20042;-95
2022/11/05 03:36:47;;;;;;;11.20;3.72;;;;;;;15.43;nan;100485.28;4933289;29;20028;-95
2022/11/05 03:39:20;;;;;;;11.90;4.25;;;;;;;15.60;nan;100483.78;4933834;29;20486;-95
2022/11/05 03:41:50;;;;;;;10.57;3.80;;;;;;;15.71;nan;100480.19;4934415;29;20032;-94
2022/11/05 03:44:25;;;;;;;11.00;4.32;;;;;;;15.84;nan;100499.34;4933657;29;20310;-93
2022/11/05 03:46:54;;;;;;;9.43;4.07;;;;;;;15.60;nan;100484.63;4934239;29;20114;-94
2022/11/05 03:49:32;;;;;;;12.65;4.50;;;;;;;15.76;nan;100475.38;4934204;29;20031;-94
2022/11/05 03:52:04;;;;;;;10.85;3.88;;;;;;;15.61;nan;100477.53;4933958;29;20032;-93
2022/11/05 03:54:31;;;;;;;13.68;3.90;;;;;;;15.38;nan;100461.00;4934246;29;20118;-93
2022/11/05 03:57:07;;;;;;;9.27;4.40;;;;;;;15.60;nan;100474.06;4933852;29;20075;-93
2022/11/05 03:59:41;;;;;;;10.48;3.55;;;;;;;15.22;nan;100462.34;4949498;29;20033;-94
2022/11/05 04:02:06;;;;;;;6.50;3.20;;;;;;;15.26;nan;100454.97;4933817;29;20376;-93
2022/11/05 04:04:32;;;;;;;16.92;4.63;;;;;;;15.22;nan;100470.28;4933939;29;20099;-94
2022/11/05 04:15:09;;;;;;;12.27;2.90;;;;;;;15.44;nan;100456.03;4935069;29;20163;-94
2022/11/05 04:17:35;;;;;;;7.53;3.08;;;;;;;15.61;nan;100459.81;4933525;29;20106;-93
2022/11/05 04:25:28;;;;;;;6.80;2.35;;;;;;;15.59;nan;100472.38;4934526;29;20068;-94
2022/11/05 04:27:59;;;;;;;6.13;2.20;;;;;;;15.35;nan;100459.47;4933197;29;20027;-94
2022/11/05 04:30:24;;;;;;;11.30;2.78;;;;;;;15.59;nan;100468.88;4932673;29;20070;-93
2022/11/05 04:33:04;;;;;;;10.82;2.40;;;;;;;16.10;nan;100472.34;4933513;29;20064;-94
2022/11/05 04:35:41;;;;;;;10.52;3.35;;;;;;;16.10;nan;100459.94;4933756;29;20047;-94
2022/11/05 04:38:09;;;;;;;5.90;2.00;;;;;;;15.89;nan;100454.75;4934847;29;20031;-94
2022/11/05 04:40:36;;;;;;;8.35;1.70;;;;;;;15.86;nan;100445.28;4933748;29;20123;-94
2022/11/05 04:43:01;;;;;;;5.63;1.58;;;;;;;15.61;nan;100457.19;4933851;29;20488;-95
2022/11/05 04:45:31;;;;;;;4.35;1.60;;;;;;;15.62;nan;100453.56;4932142;29;20047;-95
2022/11/05 04:47:56;;;;;;;6.72;2.22;;;;;;;15.85;nan;100454.19;4935036;29;20028;-95
2022/11/05 04:50:22;;;;;;;4.85;1.60;;;;;;;15.85;nan;100448.91;4933928;29;20079;-95
2022/11/05 04:52:48;;;;;;;11.40;2.05;;;;;;;15.92;nan;100435.97;4933475;29;20363;-94
2022/11/05 04:55:13;;;;;;;9.70;1.77;;;;;;;16.00;nan;100443.22;4933813;29;20063;-95
2022/11/05 04:57:39;;;;;;;7.18;1.77;;;;;;;15.84;nan;100433.16;4933472;29;20032;-94
2022/11/05 05:00:06;;;;;;;9.65;1.80;;;;;;;16.01;nan;100432.47;4932717;29;20427;-95
2022/11/05 05:02:32;;;;;;;10.75;1.50;;;;;;;15.97;nan;100440.84;4931699;29;20486;-94
2022/11/05 05:04:57;;;;;;;2.30;1.27;;;;;;;16.21;nan;100438.63;4933048;29;20059;-95
2022/11/05 05:07:23;;;;;;;10.50;1.50;;;;;;;16.18;nan;100424.81;4933514;29;20028;-94
2022/11/05 05:09:49;;;;;;;6.38;1.40;;;;;;;15.70;nan;100426.44;4936649;29;20031;-94
2022/11/05 05:12:14;;;;;;;4.53;1.50;;;;;;;15.98;nan;100426.63;4938467;29;20032;-94
2022/11/05 05:14:40;;;;;;;7.03;1.17;;;;;;;15.97;nan;100419.66;4937139;29;20027;-94
2022/11/05 05:17:05;;;;;;;9.40;1.42;;;;;;;15.89;nan;100428.28;4936232;29;20036;-93
2022/11/05 05:21:37;;;;;;;5.50;1.38;;;;;;;16.13;nan;100425.22;4936779;29;20094;-93
2022/11/05 05:22:16;;;;;;;4.65;1.50;;;;;;;16.03;nan;100419.09;4937900;29;20023;-93
2022/11/05 05:24:42;;;;;;;5.00;0.95;;;;;;;16.26;nan;100415.19;4936868;29;20043;-93
2022/11/05 05:27:08;;;;;;;6.03;1.27;;;;;;;16.54;nan;100422.41;4936973;29;20035;-93
2022/11/05 05:29:33;;;;;;;5.05;1.23;;;;;;;16.55;nan;100422.25;4935787;29;20023;-93
2022/11/05 05:31:59;;;;;;;8.70;1.30;;;;;;;16.25;nan;100407.38;4935418;29;20502;-94
2022/11/05 05:34:24;;;;;;;9.60;1.38;;;;;;;16.10;nan;100414.91;4934732;29;20482;-95
2022/11/05 05:36:50;;;;;;;10.65;1.20;;;;;;;15.97;nan;100415.19;4936310;29;20031;-94
2022/11/05 05:39:15;;;;;;;10.98;1.60;;;;;;;16.02;nan;100406.84;4936211;29;20032;-94
2022/11/05 05:41:41;;;;;;;6.10;1.60;;;;;;;15.92;nan;100406.00;4936465;29;20553;-94
2022/11/05 05:44:06;;;;;;;7.15;1.30;;;;;;;15.98;nan;100408.91;4937414;29;20418;-94
2022/11/05 05:46:32;;;;;;;7.88;1.38;;;;;;;16.09;nan;100407.94;4935631;29;20031;-92
2022/11/05 05:48:57;;;;;;;6.60;1.05;;;;;;;16.03;nan;100403.19;4936208;29;20032;-94
2022/11/05 05:51:23;;;;;;;4.50;1.15;;;;;;;15.96;nan;100408.22;4936516;29;20079;-95
2022/11/05 05:53:48;;;;;;;10.75;1.40;;;;;;;16.12;nan;100390.94;4936333;29;20043;-93
2022/11/05 05:56:18;;;;;;;8.75;3.60;;;;;;;16.14;nan;100395.13;4935906;29;20058;-93
2022/11/05 05:58:43;;;;;;;5.53;1.27;;;;;;;15.89;nan;100395.69;4937233;29;20024;-93
2022/11/05 06:01:12;;;;;;;10.20;1.23;;;;;;;16.34;nan;100390.63;4935466;29;20403;-93
2022/11/05 06:03:38;;;;;;;4.20;1.60;;;;;;;16.26;nan;100388.69;4935832;29;20042;-93
2022/11/05 06:06:06;;;;;;;10.75;1.67;;;;;;;16.37;nan;100392.16;4935962;29;20032;-93
2022/11/05 06:08:32;;;;;;;8.25;1.90;;;;;;;16.24;nan;100389.81;4937011;29;20063;-93
2022/11/05 06:10:58;;;;;;;3.13;1.40;;;;;;;16.37;nan;100400.09;4935699;29;20036;-93
2022/11/05 06:13:24;;;;;;;7.82;2.38;;;;;;;16.32;nan;100381.97;4936733;29;20513;-93
2022/11/05 06:15:50;;;;;;;8.73;3.65;;;;;;;16.19;nan;100392.03;4935633;29;20035;-94
2022/11/05 06:18:15;;;;;;;9.88;3.50;;;;;;;15.41;nan;100382.22;4935780;29;20035;-94
2022/11/05 06:20:41;;;;;;;10.85;4.50;;;;;;;15.37;nan;100386.09;4935426;29;20491;-93
2022/11/05 06:23:07;;;;;;;10.05;4.50;;;;;;;15.66;nan;100395.91;4935135;29;20027;-93
2022/11/05 06:25:32;;;;;;;10.15;4.15;;;;;;;15.92;nan;100390.94;4935285;29;20031;-93
2022/11/05 06:27:58;;;;;;;9.98;3.80;;;;;;;15.43;nan;100380.25;4936264;29;20031;-93
2022/11/05 06:30:24;;;;;;;14.50;4.15;;;;;;;15.46;nan;100382.66;4934104;29;20118;-93
2022/11/05 06:32:49;;;;;;;8.45;3.65;;;;;;;15.97;nan;100375.47;4934922;29;20031;-93
2022/11/05 06:35:15;;;;;;;10.80;3.97;;;;;;;15.95;nan;100366.81;4934831;29;20030;-93
2022/11/05 06:37:41;;;;;;;15.13;4.40;;;;;;;16.09;nan;100360.25;4935464;29;20036;-93
2022/11/05 06:40:07;;;;;;;9.45;3.78;;;;;;;16.51;nan;100367.88;4934788;29;20026;-93
2022/11/05 06:42:33;;;;;;;8.52;3.70;;;;;;;16.15;nan;100365.03;4935085;29;20119;-94
2022/11/05 06:44:58;;;;;;;8.52;3.70;;;;;;;16.42;nan;100366.06;4929416;29;20186;-94
2022/11/05 06:47:24;;;;;;;11.02;4.63;;;;;;;16.23;nan;100374.88;4934121;29;20449;-94
2022/11/05 06:49:49;;;;;;;10.98;4.05;;;;;;;16.14;nan;100373.09;4936216;29;20063;-92
2022/11/05 06:52:15;;;;;;;11.93;2.97;;;;;;;16.08;nan;100373.66;4934936;29;20032;-92
2022/11/05 06:54:42;;;;;;;8.25;2.80;;;;;;;16.27;nan;100373.63;4934572;29;20500;-95
2022/11/05 06:57:10;;;;;;;6.32;3.25;;;;;;;16.33;nan;100377.50;4934918;29;20042;-93
2022/11/05 06:59:36;;;;;;;12.55;3.33;;;;;;;16.24;nan;100369.44;4934833;29;20212;-95
2022/11/05 07:02:02;;;;;;;5.88;2.80;;;;;;;16.34;nan;100360.66;4932239;29;20486;-93
2022/11/05 07:04:27;;;;;;;7.97;2.70;;;;;;;16.43;nan;100360.63;4935299;29;20035;-92
2022/11/05 07:06:53;;;;;;;9.07;2.70;;;;;;;16.47;nan;100369.13;4934145;29;20035;-93
2022/11/05 07:09:18;;;;;;;9.68;2.83;;;;;;;16.29;nan;100365.53;4934427;29;20367;-93
2022/11/05 07:11:44;;;;;;;12.60;2.78;;;;;;;16.21;nan;100372.41;4934466;29;20035;-93
2022/11/05 07:14:09;;;;;;;18.10;3.20;;;;;;;16.29;nan;100365.53;4935356;29;20032;-94
2022/11/05 07:16:35;;;;;;;9.80;2.08;;;;;;;16.47;nan;100371.78;4933908;29;20078;-94
2022/11/05 07:19:00;;;;;;;6.47;1.95;;;;;;;16.40;nan;100366.22;4932834;29;20027;-94
2022/11/05 07:21:27;;;;;;;10.90;2.80;;;;;;;16.37;nan;100365.66;4935143;29;20493;-94
2022/11/05 07:23:52;;;;;;;11.75;2.60;;;;;;;16.46;nan;100351.56;4934193;29;20043;-93
2022/11/05 07:26:18;;;;;;;8.18;2.20;;;;;;;16.78;nan;100352.97;4935204;29;20023;-93
2022/11/05 07:28:44;;;;;;;9.75;2.75;;;;;;;16.24;nan;100339.47;4934283;29;20276;-95
2022/11/05 07:31:09;;;;;;;9.43;2.53;;;;;;;16.44;nan;100340.25;4934311;29;20027;-94
2022/11/05 07:33:35;;;;;;;8.02;2.50;;;;;;;16.41;nan;100348.47;4933726;29;20502;-94
2022/11/05 07:36:00;;;;;;;7.57;2.67;;;;;;;17.03;nan;100333.75;4933375;29;20395;-93
2022/11/05 07:38:26;;;;;;;8.52;2.40;;;;;;;17.11;nan;100325.06;4934117;29;20031;-95
2022/11/05 07:40:52;;;;;;;8.52;2.10;;;;;;;17.12;nan;100332.06;4934758;29;20095;-95
2022/11/05 07:43:17;;;;;;;6.03;2.03;;;;;;;17.31;nan;100336.41;4933870;29;20032;-94
2022/11/05 07:45:45;;;;;;;8.98;2.30;;;;;;;17.31;nan;100322.31;4934359;29;20118;-94
2022/11/05 07:48:10;;;;;;;10.35;2.45;;;;;;;17.39;nan;100325.88;4934517;29;20035;-95
2022/11/05 07:51:09;;;;;;;;;;;;;;;;;;;;;
2022/11/05 07:53:36;;;;;;;5.88;2.15;;;;;;;17.25;nan;100313.94;4932756;29;20042;-95
2022/11/05 07:56:01;;;;;;;8.80;2.58;;;;;;;16.80;nan;100316.53;4930493;29;20118;-94
2022/11/05 07:58:27;;;;;;;6.40;1.77;;;;;;;17.17;nan;100313.03;4933686;29;20019;-95
2022/11/05 08:00:52;;;;;;;8.82;1.75;;;;;;;17.44;nan;100310.34;4934115;29;20031;-94
2022/11/05 08:03:18;;;;;;;8.20;2.47;;;;;;;17.42;nan;100301.69;4945016;29;20036;-93
2022/11/05 08:05:46;;;;;;;8.77;2.20;;;;;;;17.61;nan;100321.09;4933615;29;20040;-95
2022/11/05 08:08:17;;;;;;;5.00;1.48;;;;;;;17.84;nan;100311.69;4933744;29;20395;-95
2022/11/05 08:10:42;;;;;;;12.70;2.20;;;;;;;17.59;nan;100312.44;4942395;29;20482;-94
2022/11/05 08:13:09;;;;;;;6.88;1.42;;;;;;;17.44;nan;100315.63;4932627;29;20027;-94
2022/11/05 08:15:35;;;;;;;7.18;2.45;;;;;;;17.32;nan;100303.59;4932285;29;20107;-94
2022/11/05 08:18:03;;;;;;;7.80;1.48;;;;;;;17.44;nan;100320.94;4933141;29;20390;-96
2022/11/05 08:20:29;;;;;;;10.73;2.03;;;;;;;17.44;nan;100302.38;4930677;29;20027;-94
2022/11/05 08:22:55;;;;;;;7.57;1.35;;;;;;;16.80;nan;100300.63;4932964;29;20024;-95
2022/11/05 08:25:21;;;;;;;9.63;1.77;;;;;;;17.09;nan;100311.13;4934109;29;20066;-95
2022/11/05 08:27:47;;;;;;;7.95;2.05;;;;;;;17.18;nan;100309.38;4935470;29;20059;-95
2022/11/05 08:30:13;;;;;;;9.30;1.50;;;;;;;17.62;nan;100290.91;4937812;29;20051;-95
2022/11/05 08:32:38;;;;;;;9.60;1.23;;;;;;;17.47;nan;100271.19;4933913;29;20426;-95
2022/11/05 08:35:04;;;;;;;9.35;1.40;;;;;;;17.47;nan;100281.81;4933309;29;20032;-93
2022/11/05 08:37:30;;;;;;;7.05;1.40;;;;;;;17.50;nan;100268.25;4933079;29;20031;-93
2022/11/05 08:39:55;;;;;;;5.95;1.38;;;;;;;17.47;nan;100274.69;4935096;29;20513;-96
2022/11/05 08:42:21;;;;;;;5.75;1.17;;;;;;;17.15;nan;100280.50;4934735;29;20482;-93
2022/11/05 08:44:46;;;;;;;7.20;1.45;;;;;;;17.55;nan;100268.63;4935731;29;20170;-94
2022/11/05 08:47:12;;;;;;;6.18;1.38;;;;;;;17.00;nan;100249.22;4929654;29;20043;-95
2022/11/05 08:49:37;;;;;;;7.75;1.98;;;;;;;17.27;nan;100249.28;4933843;29;20047;-95
2022/11/05 09:04:15;;;;;;;;;;;;;;;;;;;;;
2022/11/05 09:07:19;;;;;;;12.40;0.93;;;;;;;17.43;nan;100250.25;4842414;29;20091;-96
2022/11/05 09:17:09;;;;;;;;;;;;;;;;;;;;;
2022/11/05 09:19:35;;;;;;;19.38;2.13;;;;;;;17.25;nan;100247.59;4796015;29;20143;-95
2022/11/05 09:22:01;;;;;;;12.45;1.67;;;;;;;16.88;nan;100237.13;4825744;29;20474;-94
2022/11/05 09:24:26;;;;;;;12.95;1.88;;;;;;;17.41;nan;100225.69;4890861;29;20467;-95
2022/11/05 09:26:52;;;;;;;12.93;1.75;;;;;;;17.46;nan;100233.22;4918894;29;20040;-95
2022/11/05 09:29:23;;;;;;;6.95;1.10;;;;;;;17.72;nan;100243.03;4917983;29;20033;-96
2022/11/05 09:31:48;;;;;;;20.50;3.70;;;;;;;17.04;nan;100229.34;4918072;29;20550;-95
2022/11/05 09:34:14;;;;;;;7.63;1.30;;;;;;;17.29;nan;100226.09;4919109;29;20040;-94
2022/11/05 09:36:39;;;;;;;6.40;1.10;;;;;;;16.71;nan;100222.00;4918555;29;20063;-96
2022/11/05 09:39:07;;;;;;;12.73;3.53;;;;;;;17.19;nan;100234.94;4918995;29;20550;-94
2022/11/05 09:41:36;;;;;;;7.78;1.40;;;;;;;17.74;nan;100225.97;4918929;29;20020;-95
2022/11/05 09:44:08;;;;;;;5.15;1.17;;;;;;;16.63;nan;100218.25;4918917;29;20119;-95
2022/11/05 09:46:59;;;;;;;18.50;1.92;;;;;;;17.38;nan;100209.25;4919194;29;20024;-95
2022/11/05 09:49:50;;;;;;;11.25;1.63;;;;;;;17.53;nan;100206.88;4935112;29;20036;-95
2022/11/05 09:52:24;;;;;;;24.95;2.47;;;;;;;17.29;nan;100210.16;4919901;29;20036;-95
2022/11/05 09:58:23;;;;;;;8.85;1.75;;;;;;;16.85;nan;100213.56;4927494;29;20032;-96
2022/11/05 10:01:05;;;;;;;10.38;1.70;;;;;;;17.19;nan;100215.56;4916735;29;20037;-96
2022/11/05 10:03:43;;;;;;;11.75;1.88;;;;;;;16.75;nan;100207.47;4920730;29;20109;-96
2022/11/05 10:07:17;;;;;;;;;;;;;;;;;;;;;
2022/11/05 10:15:36;;;;;;;7.07;1.67;;;;;;;17.72;nan;100201.38;4997532;23;20052;-96
2022/11/05 10:18:26;;;;;;;12.85;2.17;;;;;;;17.68;nan;100205.34;4898951;29;20035;-96
2022/11/05 10:24:17;;;;;;;8.55;1.63;;;;;;;17.43;nan;100215.75;4925120;29;20043;-96
2022/11/05 10:30:22;;;;;;;8.23;1.20;;;;;;;17.28;nan;100204.03;5223347;23;20903;-96
2022/11/05 10:33:29;;;;;;;6.95;1.20;;;;;;;17.66;nan;100201.19;4957824;29;20048;-95
2022/11/05 10:36:05;;;;;;;10.57;1.35;;;;;;;17.35;nan;100194.47;4954284;29;20035;-96
2022/11/05 10:38:34;;;;;;;9.27;1.70;;;;;;;16.87;nan;100171.81;4960514;29;20330;-95
2022/11/05 10:43:45;;;;;;;6.07;1.30;;;;;;;16.99;nan;100177.75;4974324;28;20052;-96
2022/11/05 11:43:28;;;;;;;12.50;1.48;;;;;;;17.39;nan;100113.53;4946860;29;20040;-96
2022/11/05 11:46:04;;;;;;;11.73;1.08;;;;;;;17.55;nan;100120.78;4961825;28;20032;-96
2022/11/05 11:48:33;;;;;;;9.13;1.58;;;;;;;18.18;nan;100105.50;4950119;29;20028;-96
2022/11/05 11:51:43;;;;;;;;;;;;;;;;;;;;;
2022/11/05 11:54:23;;;;;;;8.00;1.45;;;;;;;18.71;nan;100096.34;4934033;29;20044;-96
2022/11/05 11:56:57;;;;;;;12.70;1.55;;;;;;;18.13;nan;100094.56;4934844;29;20028;-96
2022/11/05 11:59:36;;;;;;;6.70;1.25;;;;;;;17.35;nan;100083.00;4949731;28;20036;-95
2022/11/05 12:02:43;;;;;;;11.20;1.50;;;;;;;18.19;nan;100096.56;4944272;29;20217;-95
2022/11/05 12:05:20;;;;;;;8.85;1.00;;;;;;;17.34;nan;100091.16;4942605;29;20047;-96
2022/11/05 12:08:06;;;;;;;10.85;1.50;;;;;;;18.24;nan;100072.97;4943669;29;20046;-96
2022/11/05 12:23:33;;;;;;;;;;;;;;;;;;;;;
2022/11/05 16:33:59;;;;;;;5.07;0.80;;;;;;;20.25;nan;99828.00;4934047;29;20134;-96
2022/11/05 16:36:29;;;;;;;2.37;0.70;;;;;;;20.16;nan;99841.41;4914370;29;20088;-94
2022/11/05 16:42:38;;;;;;;3.55;1.00;;;;;;;19.68;nan;99838.09;4915055;29;20100;-96
2022/11/05 16:44:59;;;;;;;4.07;0.57;;;;;;;20.03;nan;99835.88;4915773;29;20047;-95
2022/11/05 16:47:48;;;;;;;1.67;0.73;;;;;;;19.53;nan;99853.16;4934769;29;20028;-96
2022/11/05 17:16:50;;;;;;;2.72;0.73;;;;;;;19.93;nan;99837.94;4887310;29;20052;-96
2022/11/05 17:19:29;;;;;;;4.05;1.63;;;;;;;20.89;nan;99849.69;4875592;29;20048;-96
2022/11/05 17:22:05;;;;;;;4.25;0.90;;;;;;;20.87;nan;99849.03;4920511;29;20044;-96
2022/11/05 17:27:24;;;;;;;1.83;0.77;;;;;;;20.22;nan;99829.19;4911529;29;20040;-94
2022/11/05 17:29:50;;;;;;;4.00;1.23;;;;;;;21.27;nan;99844.22;4926538;29;20054;-96
2022/11/05 17:32:18;;;;;;;2.17;1.00;;;;;;;21.59;nan;99845.59;4940109;29;20032;-95
2022/11/05 17:35:00;;;;;;;;;;;;;;;;;;;;;
2022/11/05 17:37:30;;;;;;;4.35;1.15;;;;;;;21.64;nan;99855.72;4972191;23;20043;-96
2022/11/05 17:40:13;;;;;;;2.92;0.93;;;;;;;21.41;nan;99849.72;4960588;29;20118;-94
2022/11/05 17:42:44;;;;;;;1.88;1.10;;;;;;;21.82;nan;99867.81;4959686;29;20560;-96
2022/11/05 17:45:11;;;;;;;1.48;0.88;;;;;;;22.14;nan;99863.81;4960161;29;20118;-95
2022/11/05 17:47:37;;;;;;;2.65;1.00;;;;;;;21.09;nan;99863.28;4957093;29;20035;-93
2022/11/05 17:50:04;;;;;;;2.63;0.80;;;;;;;22.03;nan;99867.00;4957730;29;20015;-93
2022/11/05 17:52:30;;;;;;;1.80;0.90;;;;;;;21.91;nan;99864.00;4956409;29;20027;-93
2022/11/05 17:55:33;;;;;;;2.40;0.93;;;;;;;21.40;nan;99854.19;4957819;29;20401;-96
2022/11/05 18:01:29;;;;;;;0.88;0.70;;;;;;;22.10;nan;99857.19;4959210;29;20035;-96
2022/11/05 18:04:00;;;;;;;1.73;1.25;;;;;;;21.40;nan;99864.88;4957676;29;20030;-96
2022/11/05 18:06:25;;;;;;;3.13;1.63;;;;;;;21.28;nan;99866.38;4950092;29;20095;-96
2022/11/05 18:09:00;;;;;;;4.20;2.40;;;;;;;21.45;nan;99859.84;4958226;29;20031;-96
2022/11/05 18:11:49;;;;;;;2.95;2.20;;;;;;;21.51;nan;99866.28;4949297;29;20051;-95
2022/11/05 18:14:15;;;;;;;3.95;2.88;;;;;;;21.36;nan;99863.59;4938493;29;20028;-94
2022/11/05 18:17:11;;;;;;;5.68;4.13;;;;;;;21.48;nan;99870.13;4953818;28;20097;-95
2022/11/05 18:23:01;;;;;;;7.00;5.20;;;;;;;21.40;nan;99867.53;4949873;29;20027;-96
2022/11/05 18:25:31;;;;;;;8.20;5.45;;;;;;;21.34;nan;99876.31;4955516;28;20086;-96
2022/11/05 18:27:57;;;;;;;6.43;5.50;;;;;;;21.54;nan;99890.78;4958491;28;20042;-94
2022/11/05 18:30:23;;;;;;;7.65;6.57;;;;;;;21.51;nan;99871.63;4955961;29;20027;-95
2022/11/05 18:32:49;;;;;;;11.25;7.45;;;;;;;21.68;nan;99893.56;4956267;29;20474;-94
2022/11/05 18:35:15;;;;;;;10.15;7.63;;;;;;;21.76;nan;99886.28;4959743;28;20022;-95
2022/11/05 18:37:44;;;;;;;9.27;7.18;;;;;;;21.37;nan;99886.63;4957728;29;20035;-94
2022/11/05 18:40:10;;;;;;;7.25;5.82;;;;;;;21.48;nan;99898.69;4956026;29;20027;-95
2022/11/05 18:42:36;;;;;;;6.18;5.55;;;;;;;21.69;nan;99893.38;4955063;29;20035;-95
2022/11/05 20:08:04;;;;;;;75.47;32.08;;;;;;;19.59;nan;99881.78;5764707;23;20047;-96
2022/11/05 20:10:29;;;;;;;75.00;31.70;;;;;;;19.24;nan;99878.63;4945850;29;20497;-94
2022/11/05 20:12:55;;;;;;;76.78;35.47;;;;;;;18.87;nan;99887.25;4940440;29;20035;-95
2022/11/05 20:15:20;;;;;;;70.68;31.10;;;;;;;19.18;nan;99876.66;4940411;29;20039;-94
2022/11/05 20:17:50;;;;;;;78.38;33.25;;;;;;;19.19;nan;99880.97;4935541;29;20075;-95
2022/11/05 20:20:18;;;;;;;67.00;28.25;;;;;;;19.21;nan;99878.94;4935355;29;20079;-95
2022/11/05 20:22:44;;;;;;;76.53;31.65;;;;;;;19.05;nan;99863.06;4926448;29;20028;-96
2022/11/05 20:25:10;;;;;;;85.15;33.28;;;;;;;19.00;nan;99867.06;4936192;29;20084;-95
2022/11/05 20:27:36;;;;;;;56.08;27.95;;;;;;;18.97;nan;99870.06;4935864;29;20036;-96
2022/11/05 20:30:04;;;;;;;71.38;28.65;;;;;;;18.89;nan;99872.75;4936052;29;20028;-96
2022/11/05 20:32:30;;;;;;;70.78;27.60;;;;;;;18.83;nan;99868.13;4933336;29;20035;-96
2022/11/05 20:34:55;;;;;;;64.45;24.05;;;;;;;18.99;nan;99881.38;4919095;29;20114;-95
2022/11/05 20:37:21;;;;;;;47.92;19.90;;;;;;;18.86;nan;99865.13;4931737;29;20467;-96
2022/11/05 20:39:48;;;;;;;54.60;19.77;;;;;;;19.06;nan;99886.84;4917533;29;20079;-96